SNN weather

Shannon Airport
Shannon, County Clare, Ireland

Public forecast

Using degrees Celsius for public forecast. Weather courtesy of forecast.io.

METAR (pilot weather report)

Retrieved 2019/06/19 21:30 UTC (0 seconds ago):

EINN 192130Z 25012KT 9999 FEW012 FEW018CB SCT047 11/09 Q1010 NOSIG

TAF (pilot weather forecast)

Retrieved 2019/06/19 18:09 UTC (3 hours ago):

TAF EINN 191700Z 1918/2018 26010KT 9999 SCT020 BKN040 TEMPO 1918/2001 26015KT SHRA SCT018CB